Time;durP1;ratioP1;P1;durP2;ratioP2;P2;SDS_P1;SDS_P2;PMS_P1;PMS_P2;Temp;Humidity;BMP_temperature;BMP_pressure;BME280_temperature;BME280_humidity;BME280_pressure;Samples;Min_cycle;Max_cycle;Signal;HPM_P1;HPM_P2
2023/09/04 00:00:16;;;;;;;6.80;3.45;;;;;;;;;;5017620;28;20053;-72
2023/09/04 00:02:41;;;;;;;9.35;4.20;;;;;;;;;;5000433;28;20021;-73
2023/09/04 00:05:07;;;;;;;8.27;3.65;;;;;;;;;;5005927;28;20042;-72
2023/09/04 00:07:32;;;;;;;6.00;3.20;;;;;;;;;;5020699;28;20033;-73
2023/09/04 00:09:58;;;;;;;7.20;3.55;;;;;;;;;;5017342;28;20033;-73
2023/09/04 00:12:25;;;;;;;6.75;3.55;;;;;;;;;;5016086;28;20033;-72
2023/09/04 00:14:50;;;;;;;8.13;3.50;;;;;;;;;;5048427;28;20026;-73
2023/09/04 00:17:17;;;;;;;8.75;3.80;;;;;;;;;;5017424;28;20040;-72
2023/09/04 00:19:42;;;;;;;8.40;4.75;;;;;;;;;;5017389;28;20034;-72
2023/09/04 00:22:08;;;;;;;6.40;4.60;;;;;;;;;;5017368;28;20442;-73
2023/09/04 00:24:33;;;;;;;7.13;3.60;;;;;;;;;;5017791;28;20052;-72
2023/09/04 00:26:58;;;;;;;6.47;3.40;;;;;;;;;;5018034;28;20022;-72
2023/09/04 00:29:23;;;;;;;5.60;3.22;;;;;;;;;;5031750;28;20033;-73
2023/09/04 00:31:49;;;;;;;5.15;3.55;;;;;;;;;;5017414;28;20497;-72
2023/09/04 00:34:14;;;;;;;6.75;3.50;;;;;;;;;;5049534;28;20022;-72
2023/09/04 00:36:39;;;;;;;8.95;4.22;;;;;;;;;;5032299;28;20511;-72
2023/09/04 00:39:05;;;;;;;5.85;3.70;;;;;;;;;;5017101;28;20034;-71
2023/09/04 00:41:30;;;;;;;6.28;3.22;;;;;;;;;;5016357;28;20029;-72
2023/09/04 00:43:56;;;;;;;7.47;3.85;;;;;;;;;;5048978;28;20076;-72
2023/09/04 00:46:21;;;;;;;8.65;4.88;;;;;;;;;;5017091;28;20400;-72
2023/09/04 00:48:47;;;;;;;8.63;4.43;;;;;;;;;;5016327;28;20392;-72
2023/09/04 00:51:13;;;;;;;6.22;3.30;;;;;;;;;;5015592;28;20025;-72
2023/09/04 00:53:39;;;;;;;8.90;4.35;;;;;;;;;;5048645;28;20033;-72
2023/09/04 00:56:05;;;;;;;7.80;4.70;;;;;;;;;;5048676;28;20026;-72
2023/09/04 00:58:31;;;;;;;9.50;5.22;;;;;;;;;;5016602;28;20140;-72
2023/09/04 01:00:59;;;;;;;11.23;4.60;;;;;;;;;;5014809;28;20081;-72
2023/09/04 01:03:24;;;;;;;9.15;5.70;;;;;;;;;;5031703;28;20480;-72
2023/09/04 01:05:49;;;;;;;8.43;5.43;;;;;;;;;;5048360;28;20022;-73
2023/09/04 01:08:16;;;;;;;10.02;5.03;;;;;;;;;;5015507;28;20045;-72
2023/09/04 01:10:50;;;;;;;10.68;4.90;;;;;;;;;;5047936;28;20033;-72
2023/09/04 01:13:20;;;;;;;8.00;5.00;;;;;;;;;;5031600;28;20507;-72
2023/09/04 01:15:46;;;;;;;8.52;3.95;;;;;;;;;;5015982;28;20026;-72
2023/09/04 01:18:12;;;;;;;9.13;4.25;;;;;;;;;;5016205;28;20017;-72
2023/09/04 01:20:37;;;;;;;7.78;4.78;;;;;;;;;;5048185;28;20063;-71
2023/09/04 01:23:03;;;;;;;8.50;4.03;;;;;;;;;;5016071;28;20491;-71
2023/09/04 01:25:45;;;;;;;6.47;3.83;;;;;;;;;;5016068;28;20026;-71
2023/09/04 01:28:21;;;;;;;7.88;4.43;;;;;;;;;;5047435;28;20022;-72
2023/09/04 01:30:55;;;;;;;9.02;4.75;;;;;;;;;;5031354;28;20104;-73
2023/09/04 01:33:25;;;;;;;8.20;4.90;;;;;;;;;;5047563;28;20391;-72
2023/09/04 01:35:51;;;;;;;5.10;3.25;;;;;;;;;;5047261;28;20030;-73
2023/09/04 01:38:16;;;;;;;11.73;5.38;;;;;;;;;;5047681;28;20104;-72
2023/09/04 01:40:42;;;;;;;8.80;4.90;;;;;;;;;;5015778;28;20109;-72
2023/09/04 01:43:07;;;;;;;8.30;3.83;;;;;;;;;;5028973;28;20042;-72
2023/09/04 01:45:33;;;;;;;5.80;3.55;;;;;;;;;;5015223;28;20018;-72
2023/09/04 01:47:58;;;;;;;7.70;4.70;;;;;;;;;;5015400;28;20369;-73
2023/09/04 01:50:23;;;;;;;7.88;3.72;;;;;;;;;;5015481;28;20484;-74
2023/09/04 01:52:48;;;;;;;10.93;4.22;;;;;;;;;;5043054;28;20023;-75
2023/09/04 01:55:14;;;;;;;9.35;4.43;;;;;;;;;;5037697;28;20391;-75
2023/09/04 01:57:39;;;;;;;5.20;3.38;;;;;;;;;;5015358;28;20025;-75
2023/09/04 02:00:06;;;;;;;9.88;4.82;;;;;;;;;;5047689;28;20501;-74
2023/09/04 02:02:31;;;;;;;9.63;4.47;;;;;;;;;;5047196;28;20385;-75
2023/09/04 02:04:56;;;;;;;9.32;4.15;;;;;;;;;;5057951;28;20029;-73
2023/09/04 02:07:22;;;;;;;5.53;2.90;;;;;;;;;;5016997;28;20106;-73
2023/09/04 02:09:47;;;;;;;7.53;3.63;;;;;;;;;;5014510;28;20029;-73
2023/09/04 02:12:12;;;;;;;5.75;3.35;;;;;;;;;;5014684;28;20018;-73
2023/09/04 02:14:38;;;;;;;5.55;3.47;;;;;;;;;;5015088;28;20472;-73
2023/09/04 02:17:03;;;;;;;6.70;3.25;;;;;;;;;;5013963;28;20068;-73
2023/09/04 02:19:29;;;;;;;7.53;4.15;;;;;;;;;;5045819;28;20022;-72
2023/09/04 02:21:54;;;;;;;6.07;3.85;;;;;;;;;;5046991;28;20104;-71
2023/09/04 02:24:20;;;;;;;7.80;3.92;;;;;;;;;;5046844;28;20053;-72
2023/09/04 02:26:45;;;;;;;7.93;3.97;;;;;;;;;;5014228;28;20152;-73
2023/09/04 02:29:10;;;;;;;8.02;3.72;;;;;;;;;;5014992;28;20025;-72
2023/09/04 02:31:35;;;;;;;5.85;3.53;;;;;;;;;;5014760;28;20468;-73
2023/09/04 02:34:01;;;;;;;7.53;3.50;;;;;;;;;;5014889;28;20026;-72
2023/09/04 02:36:26;;;;;;;6.93;4.32;;;;;;;;;;5012959;28;20100;-72
2023/09/04 02:38:51;;;;;;;5.45;3.13;;;;;;;;;;5014713;28;20028;-72
2023/09/04 02:41:17;;;;;;;5.22;3.05;;;;;;;;;;5013455;28;20030;-72
2023/09/04 02:43:42;;;;;;;5.55;3.13;;;;;;;;;;5014483;28;20022;-73
2023/09/04 02:46:07;;;;;;;8.63;4.00;;;;;;;;;;5014533;28;20484;-75
2023/09/04 02:48:32;;;;;;;5.80;3.25;;;;;;;;;;5046305;28;20091;-74
2023/09/04 02:50:58;;;;;;;4.65;2.78;;;;;;;;;;5045999;28;20048;-76
2023/09/04 02:53:26;;;;;;;7.50;3.75;;;;;;;;;;5032772;28;20037;-74
2023/09/04 02:55:52;;;;;;;6.22;4.05;;;;;;;;;;5032966;28;20025;-72
2023/09/04 02:58:17;;;;;;;7.50;3.08;;;;;;;;;;5034140;28;20384;-72
2023/09/04 03:00:43;;;;;;;5.85;3.45;;;;;;;;;;5033674;28;20029;-73
2023/09/04 03:03:08;;;;;;;11.30;4.75;;;;;;;;;;5023389;28;20074;-73
2023/09/04 03:05:34;;;;;;;12.00;4.47;;;;;;;;;;5045902;28;20026;-72
2023/09/04 03:08:01;;;;;;;9.10;4.80;;;;;;;;;;5045972;28;20500;-74
2023/09/04 03:10:30;;;;;;;8.65;4.88;;;;;;;;;;5014111;28;20076;-75
2023/09/04 03:12:55;;;;;;;8.32;3.85;;;;;;;;;;5029808;28;20061;-75
2023/09/04 03:15:20;;;;;;;7.10;4.47;;;;;;;;;;4994348;28;20109;-75
2023/09/04 03:17:46;;;;;;;11.18;5.22;;;;;;;;;;4994403;28;20096;-75
2023/09/04 03:20:12;;;;;;;9.38;4.50;;;;;;;;;;4994269;28;20053;-75
2023/09/04 03:22:37;;;;;;;9.48;5.50;;;;;;;;;;5006394;28;20076;-75
2023/09/04 03:25:02;;;;;;;12.15;5.55;;;;;;;;;;5013253;28;20017;-75
2023/09/04 03:27:28;;;;;;;13.07;6.07;;;;;;;;;;5045514;28;20471;-75
2023/09/04 03:29:54;;;;;;;12.82;5.38;;;;;;;;;;5045746;28;20065;-74
2023/09/04 03:32:19;;;;;;;14.25;6.03;;;;;;;;;;5027859;28;20028;-74
2023/09/04 03:34:44;;;;;;;13.13;5.82;;;;;;;;;;5012807;28;20048;-74
2023/09/04 03:37:10;;;;;;;10.68;5.93;;;;;;;;;;5013789;28;20082;-74
2023/09/04 03:39:39;;;;;;;13.25;6.68;;;;;;;;;;5045485;28;20030;-74
2023/09/04 03:42:05;;;;;;;11.90;5.88;;;;;;;;;;4996192;28;20026;-74
2023/09/04 03:44:30;;;;;;;8.30;3.92;;;;;;;;;;5045778;28;20022;-75
2023/09/04 03:46:55;;;;;;;15.27;6.60;;;;;;;;;;5011814;28;20491;-75
2023/09/04 03:49:21;;;;;;;14.60;6.93;;;;;;;;;;5028496;28;20514;-75
2023/09/04 03:51:46;;;;;;;12.15;5.93;;;;;;;;;;5013159;28;20029;-75
2023/09/04 03:54:11;;;;;;;12.05;6.15;;;;;;;;;;5008727;28;20030;-75
2023/09/04 03:56:37;;;;;;;11.63;5.57;;;;;;;;;;4993315;28;20038;-75
2023/09/04 03:59:02;;;;;;;11.30;6.65;;;;;;;;;;4993866;28;20022;-75
2023/09/04 04:01:28;;;;;;;14.73;7.20;;;;;;;;;;5006636;28;20018;-75
2023/09/04 04:03:53;;;;;;;13.07;6.68;;;;;;;;;;5012953;28;20029;-74
2023/09/04 04:06:20;;;;;;;16.58;7.40;;;;;;;;;;5045223;28;20028;-75
2023/09/04 04:08:46;;;;;;;12.48;7.97;;;;;;;;;;5012237;28;20391;-75
2023/09/04 04:11:15;;;;;;;12.23;6.18;;;;;;;;;;4995772;28;20105;-75
2023/09/04 04:13:40;;;;;;;12.85;6.25;;;;;;;;;;5044787;28;20455;-75
2023/09/04 04:16:06;;;;;;;11.02;5.75;;;;;;;;;;5013353;28;20046;-74
2023/09/04 04:18:31;;;;;;;10.20;5.47;;;;;;;;;;5012519;28;20030;-75
2023/09/04 04:20:57;;;;;;;8.10;4.35;;;;;;;;;;5013448;28;20484;-74
2023/09/04 04:23:22;;;;;;;14.55;6.25;;;;;;;;;;5044818;28;20033;-75
2023/09/04 04:25:49;;;;;;;12.48;6.15;;;;;;;;;;5045003;28;20388;-75
2023/09/04 04:28:16;;;;;;;7.63;4.55;;;;;;;;;;5044278;28;20032;-75
2023/09/04 04:30:42;;;;;;;11.30;4.60;;;;;;;;;;5044971;28;20542;-75
2023/09/04 04:33:07;;;;;;;11.52;5.40;;;;;;;;;;5045008;28;20026;-75
2023/09/04 04:35:33;;;;;;;13.98;6.00;;;;;;;;;;5044576;28;20022;-75
2023/09/04 04:37:58;;;;;;;8.60;4.30;;;;;;;;;;5044690;28;20022;-75
2023/09/04 04:40:23;;;;;;;7.22;3.72;;;;;;;;;;5012910;28;20112;-75
2023/09/04 04:42:49;;;;;;;6.80;2.88;;;;;;;;;;5045246;28;20037;-75
2023/09/04 04:45:14;;;;;;;4.78;2.40;;;;;;;;;;5048650;28;20025;-75
2023/09/04 04:47:39;;;;;;;6.97;3.60;;;;;;;;;;5047999;28;20033;-74
2023/09/04 04:50:05;;;;;;;15.15;6.75;;;;;;;;;;5015472;28;20033;-75
2023/09/04 04:52:31;;;;;;;14.52;7.15;;;;;;;;;;5048126;28;20029;-75
2023/09/04 04:54:56;;;;;;;15.02;6.80;;;;;;;;;;5016361;28;20075;-76
2023/09/04 04:57:21;;;;;;;13.60;6.28;;;;;;;;;;5016444;28;20384;-75
2023/09/04 04:59:47;;;;;;;12.80;5.45;;;;;;;;;;5047919;28;20480;-75
2023/09/04 05:02:13;;;;;;;19.35;6.50;;;;;;;;;;5035017;28;20065;-75
2023/09/04 05:04:44;;;;;;;11.65;6.07;;;;;;;;;;4996556;28;20018;-75
2023/09/04 05:07:09;;;;;;;18.10;6.70;;;;;;;;;;4995466;28;20031;-74
2023/09/04 05:09:35;;;;;;;15.60;6.57;;;;;;;;;;4995530;28;20121;-74
2023/09/04 05:12:00;;;;;;;13.07;5.43;;;;;;;;;;5002500;28;20021;-75
2023/09/04 05:14:25;;;;;;;12.07;6.30;;;;;;;;;;5016220;28;20028;-75
2023/09/04 05:16:50;;;;;;;12.32;5.65;;;;;;;;;;5047986;28;20391;-75
2023/09/04 05:19:16;;;;;;;8.57;4.22;;;;;;;;;;5048652;28;20025;-75
2023/09/04 05:21:41;;;;;;;13.13;6.05;;;;;;;;;;5047771;28;20056;-75
2023/09/04 05:24:06;;;;;;;12.43;6.53;;;;;;;;;;5047322;28;20033;-75
2023/09/04 05:26:32;;;;;;;12.55;5.70;;;;;;;;;;5014822;28;20030;-75
2023/09/04 05:28:57;;;;;;;13.65;6.15;;;;;;;;;;5047882;28;20038;-75
2023/09/04 05:31:22;;;;;;;13.52;6.13;;;;;;;;;;5047714;28;20029;-75
2023/09/04 05:33:48;;;;;;;16.23;6.60;;;;;;;;;;5001380;28;20503;-74
2023/09/04 05:36:13;;;;;;;18.20;7.97;;;;;;;;;;5026967;28;20032;-75
2023/09/04 05:38:38;;;;;;;14.20;7.38;;;;;;;;;;4995083;28;20496;-74
2023/09/04 05:41:04;;;;;;;16.33;7.10;;;;;;;;;;4996081;28;20028;-76
2023/09/04 05:43:29;;;;;;;15.82;5.75;;;;;;;;;;5027756;28;20030;-74
2023/09/04 05:45:54;;;;;;;14.63;6.43;;;;;;;;;;4996014;28;20037;-72
2023/09/04 05:48:20;;;;;;;16.25;6.47;;;;;;;;;;5027384;28;20033;-73
2023/09/04 05:50:45;;;;;;;15.00;7.03;;;;;;;;;;5015364;28;20026;-72
2023/09/04 05:53:10;;;;;;;15.55;6.68;;;;;;;;;;5063489;23;20187;-73
2023/09/04 05:55:36;;;;;;;18.13;7.60;;;;;;;;;;5034516;28;20029;-73
2023/09/04 05:58:01;;;;;;;16.30;7.82;;;;;;;;;;5034211;28;20043;-74
2023/09/04 06:00:27;;;;;;;12.50;6.82;;;;;;;;;;5050213;28;20024;-73
2023/09/04 06:02:54;;;;;;;15.20;6.50;;;;;;;;;;5066837;28;20029;-73
2023/09/04 06:05:19;;;;;;;20.67;8.07;;;;;;;;;;5035018;28;20059;-74
2023/09/04 06:07:45;;;;;;;17.80;8.38;;;;;;;;;;5067301;28;20060;-73
2023/09/04 06:10:10;;;;;;;15.32;7.60;;;;;;;;;;5034985;28;20025;-74
2023/09/04 06:12:35;;;;;;;14.82;7.00;;;;;;;;;;5034740;28;20476;-74
2023/09/04 06:15:00;;;;;;;12.27;6.22;;;;;;;;;;5034320;28;20021;-73
2023/09/04 06:17:26;;;;;;;14.63;6.38;;;;;;;;;;5067058;28;20083;-73
2023/09/04 06:19:51;;;;;;;15.13;6.70;;;;;;;;;;5050418;28;20144;-73
2023/09/04 06:22:16;;;;;;;19.13;8.30;;;;;;;;;;5035330;28;20021;-73
2023/09/04 06:24:42;;;;;;;16.90;7.47;;;;;;;;;;5034871;28;20040;-73
2023/09/04 06:27:07;;;;;;;17.30;7.25;;;;;;;;;;5067461;28;20029;-73
2023/09/04 06:29:32;;;;;;;15.75;6.93;;;;;;;;;;5049782;28;20029;-73
2023/09/04 06:31:58;;;;;;;16.45;7.53;;;;;;;;;;5034622;28;20546;-74
2023/09/04 06:34:23;;;;;;;20.10;8.52;;;;;;;;;;5034517;28;20033;-73
2023/09/04 06:36:48;;;;;;;13.88;7.82;;;;;;;;;;5034462;28;20029;-73
2023/09/04 06:39:13;;;;;;;20.40;8.98;;;;;;;;;;5066688;28;20026;-73
2023/09/04 06:41:39;;;;;;;16.52;8.50;;;;;;;;;;5034766;28;20079;-73
2023/09/04 06:44:04;;;;;;;17.20;7.53;;;;;;;;;;5068276;28;20025;-74
2023/09/04 06:46:30;;;;;;;13.63;7.78;;;;;;;;;;5036968;28;20388;-74
2023/09/04 06:48:55;;;;;;;14.23;7.22;;;;;;;;;;5069155;28;20037;-74
2023/09/04 06:51:20;;;;;;;15.38;7.40;;;;;;;;;;5053024;28;20022;-73
2023/09/04 06:53:46;;;;;;;15.23;7.63;;;;;;;;;;5068759;28;20468;-74
2023/09/04 06:56:11;;;;;;;15.13;6.95;;;;;;;;;;5052444;28;20021;-74
2023/09/04 06:58:39;;;;;;;14.50;7.40;;;;;;;;;;5069846;28;20020;-74
2023/09/04 07:01:04;;;;;;;16.33;7.63;;;;;;;;;;5052684;28;20056;-73
2023/09/04 07:03:30;;;;;;;13.27;5.75;;;;;;;;;;5069510;28;20475;-74
2023/09/04 07:05:55;;;;;;;13.70;6.22;;;;;;;;;;5069420;28;20066;-74
2023/09/04 07:08:21;;;;;;;14.45;6.93;;;;;;;;;;5069890;28;20087;-74
2023/09/04 07:10:50;;;;;;;15.80;7.28;;;;;;;;;;5069329;28;20037;-74
2023/09/04 07:13:16;;;;;;;9.82;5.75;;;;;;;;;;5036880;28;20060;-74
2023/09/04 07:15:41;;;;;;;9.30;5.20;;;;;;;;;;5054251;28;20095;-74
2023/09/04 07:18:07;;;;;;;8.23;4.90;;;;;;;;;;5068470;28;20101;-74
2023/09/04 07:20:32;;;;;;;9.15;4.68;;;;;;;;;;5036081;28;20021;-73
2023/09/04 07:22:57;;;;;;;7.20;3.88;;;;;;;;;;5034893;28;20029;-73
2023/09/04 07:25:23;;;;;;;6.95;3.15;;;;;;;;;;5033417;28;20475;-73
2023/09/04 07:27:48;;;;;;;5.72;2.92;;;;;;;;;;5034028;28;20068;-73
2023/09/04 07:30:13;;;;;;;4.53;3.33;;;;;;;;;;5034459;28;20464;-73
2023/09/04 07:32:39;;;;;;;4.97;3.15;;;;;;;;;;5067022;28;20037;-74
2023/09/04 07:35:05;;;;;;;6.25;2.55;;;;;;;;;;5034964;28;20048;-74
2023/09/04 07:37:30;;;;;;;7.50;2.92;;;;;;;;;;5016765;28;20017;-73
2023/09/04 07:39:56;;;;;;;5.28;3.35;;;;;;;;;;5033921;28;20379;-74
2023/09/04 07:42:22;;;;;;;3.70;2.40;;;;;;;;;;5066820;28;20029;-74
2023/09/04 07:44:47;;;;;;;3.50;2.40;;;;;;;;;;5061104;28;20029;-74
2023/09/04 07:47:12;;;;;;;3.55;1.67;;;;;;;;;;5028048;28;20048;-72
2023/09/04 07:49:38;;;;;;;3.55;2.35;;;;;;;;;;5024193;28;20365;-72
2023/09/04 07:52:03;;;;;;;4.88;2.00;;;;;;;;;;5033056;28;20033;-72
2023/09/04 07:54:29;;;;;;;2.63;1.73;;;;;;;;;;5064558;28;20467;-72
2023/09/04 07:56:54;;;;;;;5.25;1.73;;;;;;;;;;5032709;28;20032;-73
2023/09/04 07:59:19;;;;;;;3.58;1.83;;;;;;;;;;5064394;28;20137;-73
2023/09/04 08:01:45;;;;;;;3.47;1.80;;;;;;;;;;5065547;28;20025;-72
2023/09/04 08:04:10;;;;;;;4.40;2.08;;;;;;;;;;5065345;28;20076;-72
2023/09/04 08:06:35;;;;;;;3.20;1.58;;;;;;;;;;5032948;28;20037;-72
2023/09/04 08:09:01;;;;;;;3.47;1.65;;;;;;;;;;5065652;28;20080;-72
2023/09/04 08:11:26;;;;;;;5.15;1.60;;;;;;;;;;5063281;28;20109;-73
2023/09/04 08:13:51;;;;;;;3.97;1.73;;;;;;;;;;5043049;28;20542;-73
2023/09/04 08:16:16;;;;;;;4.05;1.40;;;;;;;;;;5044602;28;20468;-73
2023/09/04 08:18:42;;;;;;;2.88;1.42;;;;;;;;;;5015416;28;20053;-73
2023/09/04 08:21:07;;;;;;;2.88;1.85;;;;;;;;;;5049256;28;20054;-72
2023/09/04 08:23:32;;;;;;;2.78;1.50;;;;;;;;;;5017435;28;20052;-71
2023/09/04 08:25:59;;;;;;;4.65;1.80;;;;;;;;;;5016620;28;20132;-71
2023/09/04 08:28:24;;;;;;;3.33;1.60;;;;;;;;;;5063662;28;20052;-71
2023/09/04 08:30:49;;;;;;;3.10;2.30;;;;;;;;;;5036907;28;20376;-72
2023/09/04 08:33:14;;;;;;;3.33;1.35;;;;;;;;;;5068778;28;20040;-71
2023/09/04 08:35:40;;;;;;;3.20;1.50;;;;;;;;;;5036465;28;20075;-71
2023/09/04 08:38:06;;;;;;;3.30;1.40;;;;;;;;;;5068708;28;20514;-71
2023/09/04 08:40:32;;;;;;;2.33;1.38;;;;;;;;;;5052002;28;20040;-71
2023/09/04 08:42:57;;;;;;;2.05;1.48;;;;;;;;;;5068716;28;20026;-71
2023/09/04 08:45:23;;;;;;;2.50;1.65;;;;;;;;;;5067763;28;20026;-71
2023/09/04 08:47:49;;;;;;;5.22;1.73;;;;;;;;;;5036536;28;20109;-71
2023/09/04 08:50:16;;;;;;;2.30;1.55;;;;;;;;;;5036436;28;20025;-71
2023/09/04 08:52:41;;;;;;;2.45;1.30;;;;;;;;;;5068797;28;20533;-71
2023/09/04 08:55:08;;;;;;;2.33;1.38;;;;;;;;;;5034366;28;20033;-71
2023/09/04 08:57:33;;;;;;;2.72;1.65;;;;;;;;;;5067638;28;20051;-71
2023/09/04 08:59:59;;;;;;;4.00;1.95;;;;;;;;;;5034627;28;20025;-71
2023/09/04 09:02:24;;;;;;;3.45;1.80;;;;;;;;;;5067020;28;20031;-71
2023/09/04 09:04:51;;;;;;;2.22;1.33;;;;;;;;;;5034051;28;20017;-71
2023/09/04 09:07:17;;;;;;;2.15;1.50;;;;;;;;;;5034867;28;20036;-71
2023/09/04 09:09:46;;;;;;;3.40;1.73;;;;;;;;;;5050229;28;20034;-71
2023/09/04 09:12:12;;;;;;;3.10;1.27;;;;;;;;;;5046461;28;20061;-71
2023/09/04 09:14:37;;;;;;;3.35;1.45;;;;;;;;;;5026286;28;20426;-71
2023/09/04 09:17:07;;;;;;;5.28;1.60;;;;;;;;;;5034493;28;20068;-71
2023/09/04 09:19:34;;;;;;;3.60;1.75;;;;;;;;;;5034462;28;20022;-71
2023/09/04 09:22:15;;;;;;;2.28;1.40;;;;;;;;;;5034161;28;20048;-71
2023/09/04 09:25:08;;;;;;;5.25;1.50;;;;;;;;;;5031859;28;20029;-71
2023/09/04 09:27:34;;;;;;;2.97;1.60;;;;;;;;;;5012485;28;20587;-71
2023/09/04 09:30:00;;;;;;;2.28;1.40;;;;;;;;;;5023933;28;20033;-71
2023/09/04 09:32:30;;;;;;;3.63;1.73;;;;;;;;;;5034544;28;20167;-71
2023/09/04 09:34:57;;;;;;;2.08;1.50;;;;;;;;;;5066456;28;20556;-71
2023/09/04 09:37:29;;;;;;;2.15;1.65;;;;;;;;;;5016740;28;20079;-71
2023/09/04 09:39:54;;;;;;;2.38;1.48;;;;;;;;;;5013318;28;20033;-71
2023/09/04 09:42:25;;;;;;;2.85;1.20;;;;;;;;;;5024370;28;20025;-71
2023/09/04 09:44:51;;;;;;;2.50;1.85;;;;;;;;;;5034782;28;20162;-71
2023/09/04 09:47:16;;;;;;;2.45;1.40;;;;;;;;;;5049351;28;20030;-71
2023/09/04 09:49:43;;;;;;;3.53;1.60;;;;;;;;;;5034375;28;20026;-71
2023/09/04 09:52:09;;;;;;;3.90;1.90;;;;;;;;;;5032488;28;20057;-72
2023/09/04 09:54:36;;;;;;;3.83;2.10;;;;;;;;;;5066583;28;20040;-72
2023/09/04 09:57:03;;;;;;;3.38;1.70;;;;;;;;;;5033547;28;20025;-72
2023/09/04 09:59:30;;;;;;;3.42;1.70;;;;;;;;;;5032292;28;20108;-72
2023/09/04 10:01:56;;;;;;;2.53;2.00;;;;;;;;;;5049486;28;20464;-72
2023/09/04 10:04:22;;;;;;;3.60;1.60;;;;;;;;;;5049435;28;20472;-72
2023/09/04 10:06:49;;;;;;;2.50;1.30;;;;;;;;;;5032586;28;20025;-72
2023/09/04 10:09:17;;;;;;;3.00;1.40;;;;;;;;;;5066039;28;20021;-72
2023/09/04 10:11:44;;;;;;;7.13;1.65;;;;;;;;;;5065734;28;20056;-72
2023/09/04 10:14:16;;;;;;;2.20;1.40;;;;;;;;;;5065129;28;20100;-72
2023/09/04 10:16:44;;;;;;;3.70;1.80;;;;;;;;;;5032391;28;20025;-72
2023/09/04 10:19:10;;;;;;;4.10;2.13;;;;;;;;;;5032226;28;20545;-72
2023/09/04 10:21:40;;;;;;;2.70;1.45;;;;;;;;;;5031990;28;20026;-72
2023/09/04 10:24:12;;;;;;;2.70;2.05;;;;;;;;;;5034095;28;20021;-72
2023/09/04 10:26:58;;;;;;;3.30;1.20;;;;;;;;;;5033339;28;20021;-72
2023/09/04 10:29:26;;;;;;;3.30;1.55;;;;;;;;;;5032492;28;20021;-71
2023/09/04 10:31:52;;;;;;;2.95;1.52;;;;;;;;;;5032056;28;20060;-72
2023/09/04 10:34:19;;;;;;;2.35;1.40;;;;;;;;;;5065136;28;20057;-72
2023/09/04 10:36:44;;;;;;;2.35;1.30;;;;;;;;;;5033326;28;20021;-73
2023/09/04 10:39:10;;;;;;;1.98;1.30;;;;;;;;;;5048657;28;20029;-72
2023/09/04 10:41:36;;;;;;;2.80;1.80;;;;;;;;;;5065102;28;20068;-72
2023/09/04 10:44:01;;;;;;;3.17;1.70;;;;;;;;;;5064500;28;20552;-72
2023/09/04 10:46:26;;;;;;;2.40;1.33;;;;;;;;;;5033666;28;20021;-72
2023/09/04 10:48:53;;;;;;;2.90;1.35;;;;;;;;;;5032464;28;20075;-72
2023/09/04 10:51:36;;;;;;;2.83;1.40;;;;;;;;;;5033193;28;20025;-72
2023/09/04 10:54:14;;;;;;;2.13;1.58;;;;;;;;;;5033039;28;20219;-73
2023/09/04 10:56:52;;;;;;;4.07;1.42;;;;;;;;;;5030930;28;20025;-71
2023/09/04 10:59:18;;;;;;;2.50;1.60;;;;;;;;;;5063472;28;20344;-72
2023/09/04 11:01:43;;;;;;;2.53;1.52;;;;;;;;;;5032581;28;20025;-71
2023/09/04 11:04:08;;;;;;;2.38;1.40;;;;;;;;;;5032585;28;20048;-73
2023/09/04 11:06:36;;;;;;;2.85;1.70;;;;;;;;;;5031202;28;20021;-72
2023/09/04 11:09:03;;;;;;;2.75;1.50;;;;;;;;;;5031012;28;20025;-73
2023/09/04 11:11:28;;;;;;;3.03;1.55;;;;;;;;;;5031643;28;20483;-72
2023/09/04 11:14:06;;;;;;;1.70;1.20;;;;;;;;;;5030669;28;20132;-72
2023/09/04 11:16:42;;;;;;;1.70;1.20;;;;;;;;;;5022683;28;20032;-72
2023/09/04 11:19:11;;;;;;;2.30;1.60;;;;;;;;;;5064407;28;20025;-72
2023/09/04 11:21:37;;;;;;;2.60;1.30;;;;;;;;;;5064080;28;20033;-72
2023/09/04 11:24:04;;;;;;;2.10;1.25;;;;;;;;;;5047753;28;20071;-72
2023/09/04 11:26:30;;;;;;;1.95;1.15;;;;;;;;;;5031383;28;20514;-72
2023/09/04 11:28:57;;;;;;;2.47;1.20;;;;;;;;;;5032024;28;20033;-72
2023/09/04 11:31:23;;;;;;;1.95;1.25;;;;;;;;;;5064122;28;20017;-72
2023/09/04 11:33:48;;;;;;;1.98;1.40;;;;;;;;;;5032367;28;20113;-72
2023/09/04 11:36:14;;;;;;;2.17;1.50;;;;;;;;;;5031964;28;20061;-72
2023/09/04 11:38:39;;;;;;;3.15;1.40;;;;;;;;;;5031132;28;20039;-72
2023/09/04 11:41:18;;;;;;;1.98;1.23;;;;;;;;;;5031875;28;20034;-72
2023/09/04 11:43:43;;;;;;;3.83;1.45;;;;;;;;;;5064863;28;20025;-72
2023/09/04 11:46:10;;;;;;;2.42;1.63;;;;;;;;;;5032021;28;20584;-72
2023/09/04 11:48:35;;;;;;;2.38;1.40;;;;;;;;;;5064098;28;20040;-72
2023/09/04 11:51:02;;;;;;;3.40;1.80;;;;;;;;;;5030307;28;20030;-73
2023/09/04 11:53:27;;;;;;;3.28;1.75;;;;;;;;;;5029933;28;20033;-72
2023/09/04 11:55:53;;;;;;;2.20;1.45;;;;;;;;;;5032629;28;20133;-71
2023/09/04 11:58:18;;;;;;;3.60;1.58;;;;;;;;;;5063796;28;20028;-71
2023/09/04 12:00:45;;;;;;;3.05;1.92;;;;;;;;;;5032016;28;20037;-71
2023/09/04 12:03:11;;;;;;;6.97;2.03;;;;;;;;;;5013984;28;20025;-71
2023/09/04 12:05:36;;;;;;;2.50;1.60;;;;;;;;;;5031931;28;20029;-71
2023/09/04 12:08:03;;;;;;;4.00;1.75;;;;;;;;;;5064280;28;20040;-72
2023/09/04 12:10:28;;;;;;;2.60;1.70;;;;;;;;;;5064493;28;20026;-72
2023/09/04 12:12:53;;;;;;;2.83;1.50;;;;;;;;;;5030151;28;20029;-72
2023/09/04 12:15:30;;;;;;;4.18;1.50;;;;;;;;;;5064447;28;20025;-72
2023/09/04 12:17:57;;;;;;;3.22;1.40;;;;;;;;;;5031712;28;20029;-72
2023/09/04 12:20:23;;;;;;;3.10;1.90;;;;;;;;;;5064111;28;20117;-72
2023/09/04 12:22:58;;;;;;;4.28;1.90;;;;;;;;;;5031779;28;20119;-72
2023/09/04 12:25:34;;;;;;;3.58;1.73;;;;;;;;;;5032113;28;20029;-72
2023/09/04 12:27:59;;;;;;;3.50;1.83;;;;;;;;;;5063642;28;20028;-72
2023/09/04 12:30:24;;;;;;;3.85;2.25;;;;;;;;;;5031941;28;20387;-72
2023/09/04 12:32:50;;;;;;;2.97;1.70;;;;;;;;;;5031095;28;20029;-71
2023/09/04 12:35:18;;;;;;;4.32;1.95;;;;;;;;;;5032290;28;20037;-72
2023/09/04 12:37:43;;;;;;;3.42;1.88;;;;;;;;;;5032012;28;20100;-72
2023/09/04 12:40:09;;;;;;;3.65;1.60;;;;;;;;;;5031651;28;20096;-72
2023/09/04 12:42:36;;;;;;;4.47;2.35;;;;;;;;;;5032340;28;20025;-72
2023/09/04 12:45:01;;;;;;;4.47;2.33;;;;;;;;;;5031486;28;20103;-74
2023/09/04 12:47:26;;;;;;;4.03;1.83;;;;;;;;;;5031230;28;20546;-73
2023/09/04 12:49:52;;;;;;;2.58;1.55;;;;;;;;;;5063887;28;20040;-73
2023/09/04 12:52:17;;;;;;;3.40;1.80;;;;;;;;;;5031668;28;20037;-73
2023/09/04 12:54:42;;;;;;;5.68;2.22;;;;;;;;;;5063658;28;20451;-73
2023/09/04 12:57:08;;;;;;;2.83;1.67;;;;;;;;;;5063613;28;20029;-73
2023/09/04 12:59:33;;;;;;;3.95;2.00;;;;;;;;;;5031327;28;20072;-73
2023/09/04 13:01:58;;;;;;;4.68;2.00;;;;;;;;;;5063438;28;20044;-74
2023/09/04 13:04:24;;;;;;;3.70;2.15;;;;;;;;;;5033274;28;20027;-74
2023/09/04 13:06:50;;;;;;;3.15;2.00;;;;;;;;;;5035553;28;20025;-74
2023/09/04 13:09:16;;;;;;;3.58;2.00;;;;;;;;;;5067169;28;20120;-70
2023/09/04 13:11:41;;;;;;;3.78;2.50;;;;;;;;;;5035203;28;20104;-72
2023/09/04 13:14:06;;;;;;;3.20;2.20;;;;;;;;;;5034227;28;20029;-72
2023/09/04 13:16:32;;;;;;;5.13;2.67;;;;;;;;;;5031615;28;20030;-72
2023/09/04 13:18:58;;;;;;;3.80;2.90;;;;;;;;;;5048063;28;20522;-72
2023/09/04 13:21:23;;;;;;;4.93;2.22;;;;;;;;;;5047640;28;20057;-72
2023/09/04 13:23:48;;;;;;;3.95;2.35;;;;;;;;;;5016250;28;20026;-72
2023/09/04 13:26:14;;;;;;;3.85;2.50;;;;;;;;;;5016288;28;20413;-72
2023/09/04 13:28:39;;;;;;;5.18;2.80;;;;;;;;;;5016112;28;20076;-72
2023/09/04 13:31:04;;;;;;;5.55;2.92;;;;;;;;;;5047379;28;20080;-72
2023/09/04 13:33:29;;;;;;;6.85;3.17;;;;;;;;;;5015887;28;20039;-73
2023/09/04 13:35:55;;;;;;;4.53;2.50;;;;;;;;;;5047864;28;20056;-73
2023/09/04 13:38:20;;;;;;;4.93;3.00;;;;;;;;;;5016018;28;20383;-72
2023/09/04 13:40:45;;;;;;;3.30;2.63;;;;;;;;;;5016533;28;20033;-73
2023/09/04 13:43:11;;;;;;;3.63;2.50;;;;;;;;;;5047607;28;20022;-72
2023/09/04 13:45:36;;;;;;;5.82;2.75;;;;;;;;;;5016068;28;20026;-71
2023/09/04 13:48:01;;;;;;;3.42;2.03;;;;;;;;;;5016002;28;20473;-71
2023/09/04 13:50:26;;;;;;;7.30;3.60;;;;;;;;;;5031151;28;20033;-71
2023/09/04 13:52:52;;;;;;;4.13;2.42;;;;;;;;;;5015857;28;20026;-71
2023/09/04 13:55:18;;;;;;;5.20;2.70;;;;;;;;;;5015438;28;20034;-71
2023/09/04 13:57:44;;;;;;;3.60;2.58;;;;;;;;;;5015824;28;20045;-71
2023/09/04 14:00:11;;;;;;;4.95;2.83;;;;;;;;;;5015900;28;20022;-71
2023/09/04 14:02:36;;;;;;;4.88;2.40;;;;;;;;;;5015036;28;20057;-71
2023/09/04 14:05:02;;;;;;;5.18;2.85;;;;;;;;;;5015715;28;20472;-71
2023/09/04 14:07:27;;;;;;;6.90;2.42;;;;;;;;;;5015679;28;20037;-71
2023/09/04 14:09:52;;;;;;;4.10;2.25;;;;;;;;;;5015606;28;20491;-71
2023/09/04 14:12:17;;;;;;;5.78;3.38;;;;;;;;;;5046934;28;20034;-71
2023/09/04 14:14:43;;;;;;;4.40;2.55;;;;;;;;;;5047316;28;20029;-71
2023/09/04 14:17:08;;;;;;;3.13;2.40;;;;;;;;;;5047122;28;20029;-71
2023/09/04 14:19:33;;;;;;;7.53;2.50;;;;;;;;;;5015758;28;20022;-71
2023/09/04 14:21:59;;;;;;;4.20;2.72;;;;;;;;;;5047139;28;20025;-70
2023/09/04 14:24:24;;;;;;;5.50;2.42;;;;;;;;;;5029960;28;20022;-70
2023/09/04 14:26:49;;;;;;;4.38;2.58;;;;;;;;;;5015434;28;20101;-70
2023/09/04 14:29:15;;;;;;;4.60;2.38;;;;;;;;;;5015253;28;20499;-71
2023/09/04 14:31:40;;;;;;;5.70;3.00;;;;;;;;;;5030383;28;20140;-71
2023/09/04 14:34:06;;;;;;;5.80;3.25;;;;;;;;;;5030478;28;20125;-71